sensor_id;sensor_type;location;lat;lon;timestamp;temperature;humidity
19039;DHT22;9652;49.014;12.052;2023-04-15T00:01:05;11.00;73.50
19039;DHT22;9652;49.014;12.052;2023-04-15T00:03:32;11.00;73.40
19039;DHT22;9652;49.014;12.052;2023-04-15T00:06:00;11.00;73.40
19039;DHT22;9652;49.014;12.052;2023-04-15T00:08:28;11.00;73.30
19039;DHT22;9652;49.014;12.052;2023-04-15T00:10:55;10.90;74.10
19039;DHT22;9652;49.014;12.052;2023-04-15T00:13:24;11.00;73.20
19039;DHT22;9652;49.014;12.052;2023-04-15T00:15:51;10.90;73.10
19039;DHT22;9652;49.014;12.052;2023-04-15T00:18:19;10.90;73.00
19039;DHT22;9652;49.014;12.052;2023-04-15T00:20:46;10.90;73.00
19039;DHT22;9652;49.014;12.052;2023-04-15T00:23:13;10.90;72.90
19039;DHT22;9652;49.014;12.052;2023-04-15T00:25:40;10.90;72.90
19039;DHT22;9652;49.014;12.052;2023-04-15T00:28:07;10.90;72.90
19039;DHT22;9652;49.014;12.052;2023-04-15T00:30:34;10.90;72.90
19039;DHT22;9652;49.014;12.052;2023-04-15T00:33:01;10.90;73.60
19039;DHT22;9652;49.014;12.052;2023-04-15T00:35:30;10.90;72.70
19039;DHT22;9652;49.014;12.052;2023-04-15T00:37:58;10.90;72.60
19039;DHT22;9652;49.014;12.052;2023-04-15T00:40:25;10.90;72.70
19039;DHT22;9652;49.014;12.052;2023-04-15T00:42:52;10.90;72.60
19039;DHT22;9652;49.014;12.052;2023-04-15T00:45:20;10.90;72.60
19039;DHT22;9652;49.014;12.052;2023-04-15T00:47:47;10.90;72.50
19039;DHT22;9652;49.014;12.052;2023-04-15T00:50:14;10.90;72.40
19039;DHT22;9652;49.014;12.052;2023-04-15T00:52:42;10.90;72.40
19039;DHT22;9652;49.014;12.052;2023-04-15T00:55:10;11.00;72.50
19039;DHT22;9652;49.014;12.052;2023-04-15T00:57:38;10.90;72.40
19039;DHT22;9652;49.014;12.052;2023-04-15T01:00:06;11.00;72.40
19039;DHT22;9652;49.014;12.052;2023-04-15T01:02:36;11.00;72.40
19039;DHT22;9652;49.014;12.052;2023-04-15T01:05:04;11.00;72.50
19039;DHT22;9652;49.014;12.052;2023-04-15T01:07:32;11.00;72.40
19039;DHT22;9652;49.014;12.052;2023-04-15T01:10:01;11.00;72.40
19039;DHT22;9652;49.014;12.052;2023-04-15T01:12:31;11.00;72.40
19039;DHT22;9652;49.014;12.052;2023-04-15T01:14:59;11.00;72.40
19039;DHT22;9652;49.014;12.052;2023-04-15T01:17:27;11.10;72.40
19039;DHT22;9652;49.014;12.052;2023-04-15T01:19:55;11.10;72.40
19039;DHT22;9652;49.014;12.052;2023-04-15T01:22:23;11.10;72.40
19039;DHT22;9652;49.014;12.052;2023-04-15T01:24:56;10.90;72.20
19039;DHT22;9652;49.014;12.052;2023-04-15T01:27:35;11.10;72.20
19039;DHT22;9652;49.014;12.052;2023-04-15T01:30:06;11.20;72.40
19039;DHT22;9652;49.014;12.052;2023-04-15T01:32:35;11.20;72.40
19039;DHT22;9652;49.014;12.052;2023-04-15T01:35:02;11.20;72.40
19039;DHT22;9652;49.014;12.052;2023-04-15T01:37:29;11.20;72.30
19039;DHT22;9652;49.014;12.052;2023-04-15T01:39:57;11.20;72.20
19039;DHT22;9652;49.014;12.052;2023-04-15T01:42:24;11.20;72.20
19039;DHT22;9652;49.014;12.052;2023-04-15T01:44:53;11.20;72.10
19039;DHT22;9652;49.014;12.052;2023-04-15T01:47:20;11.20;72.10
19039;DHT22;9652;49.014;12.052;2023-04-15T01:49:48;11.20;72.00
19039;DHT22;9652;49.014;12.052;2023-04-15T01:52:15;11.20;71.90
19039;DHT22;9652;49.014;12.052;2023-04-15T01:54:42;11.20;72.00
19039;DHT22;9652;49.014;12.052;2023-04-15T01:57:11;11.20;72.10
19039;DHT22;9652;49.014;12.052;2023-04-15T01:59:38;11.30;72.90
19039;DHT22;9652;49.014;12.052;2023-04-15T02:02:07;11.30;72.00
19039;DHT22;9652;49.014;12.052;2023-04-15T02:04:34;11.30;71.80
19039;DHT22;9652;49.014;12.052;2023-04-15T02:07:01;11.30;71.80
19039;DHT22;9652;49.014;12.052;2023-04-15T02:09:28;11.30;71.80
19039;DHT22;9652;49.014;12.052;2023-04-15T02:11:55;11.30;71.70
19039;DHT22;9652;49.014;12.052;2023-04-15T02:14:23;11.30;71.70
19039;DHT22;9652;49.014;12.052;2023-04-15T02:16:52;11.30;71.60
19039;DHT22;9652;49.014;12.052;2023-04-15T02:19:21;11.30;71.70
19039;DHT22;9652;49.014;12.052;2023-04-15T02:21:48;11.30;71.70
19039;DHT22;9652;49.014;12.052;2023-04-15T02:24:16;11.30;71.70
19039;DHT22;9652;49.014;12.052;2023-04-15T02:26:44;11.30;71.60
19039;DHT22;9652;49.014;12.052;2023-04-15T02:29:11;11.30;71.70
19039;DHT22;9652;49.014;12.052;2023-04-15T02:31:39;11.30;71.60
19039;DHT22;9652;49.014;12.052;2023-04-15T02:34:06;11.30;71.50
19039;DHT22;9652;49.014;12.052;2023-04-15T02:36:35;11.30;71.50
19039;DHT22;9652;49.014;12.052;2023-04-15T02:39:04;11.30;71.50
19039;DHT22;9652;49.014;12.052;2023-04-15T02:41:31;11.20;71.40
19039;DHT22;9652;49.014;12.052;2023-04-15T02:43:58;11.20;71.40
19039;DHT22;9652;49.014;12.052;2023-04-15T02:46:28;11.20;71.40
19039;DHT22;9652;49.014;12.052;2023-04-15T02:48:56;11.20;71.50
19039;DHT22;9652;49.014;12.052;2023-04-15T02:51:24;11.20;71.60
19039;DHT22;9652;49.014;12.052;2023-04-15T02:53:53;11.20;71.70
19039;DHT22;9652;49.014;12.052;2023-04-15T02:56:21;11.10;71.70
19039;DHT22;9652;49.014;12.052;2023-04-15T02:58:48;11.10;71.90
19039;DHT22;9652;49.014;12.052;2023-04-15T03:01:16;11.00;72.20
19039;DHT22;9652;49.014;12.052;2023-04-15T03:03:43;11.00;72.20
19039;DHT22;9652;49.014;12.052;2023-04-15T03:06:10;11.00;72.40
19039;DHT22;9652;49.014;12.052;2023-04-15T03:08:37;11.00;72.60
19039;DHT22;9652;49.014;12.052;2023-04-15T03:11:06;10.90;72.60
19039;DHT22;9652;49.014;12.052;2023-04-15T03:13:35;10.90;72.80
19039;DHT22;9652;49.014;12.052;2023-04-15T03:16:10;10.90;73.00
19039;DHT22;9652;49.014;12.052;2023-04-15T03:18:37;10.80;73.30
19039;DHT22;9652;49.014;12.052;2023-04-15T03:21:04;10.80;73.40
19039;DHT22;9652;49.014;12.052;2023-04-15T03:23:34;10.80;73.60
19039;DHT22;9652;49.014;12.052;2023-04-15T03:26:01;10.80;73.90
19039;DHT22;9652;49.014;12.052;2023-04-15T03:28:32;10.70;74.10
19039;DHT22;9652;49.014;12.052;2023-04-15T03:31:00;10.70;74.40
19039;DHT22;9652;49.014;12.052;2023-04-15T03:33:27;10.70;74.50
19039;DHT22;9652;49.014;12.052;2023-04-15T03:35:54;10.80;74.80
19039;DHT22;9652;49.014;12.052;2023-04-15T03:38:22;10.70;75.00
19039;DHT22;9652;49.014;12.052;2023-04-15T03:40:49;10.70;75.20
19039;DHT22;9652;49.014;12.052;2023-04-15T03:43:16;10.70;75.50
19039;DHT22;9652;49.014;12.052;2023-04-15T03:45:44;10.70;75.60
19039;DHT22;9652;49.014;12.052;2023-04-15T03:48:11;10.70;75.80
19039;DHT22;9652;49.014;12.052;2023-04-15T03:50:38;10.70;75.80
19039;DHT22;9652;49.014;12.052;2023-04-15T03:53:05;10.70;75.80
19039;DHT22;9652;49.014;12.052;2023-04-15T03:55:32;10.60;75.80
19039;DHT22;9652;49.014;12.052;2023-04-15T03:58:00;10.60;75.80
19039;DHT22;9652;49.014;12.052;2023-04-15T04:00:27;10.70;75.80
19039;DHT22;9652;49.014;12.052;2023-04-15T04:02:55;10.70;75.90
19039;DHT22;9652;49.014;12.052;2023-04-15T04:05:22;10.60;76.10
19039;DHT22;9652;49.014;12.052;2023-04-15T04:07:50;10.60;76.20
19039;DHT22;9652;49.014;12.052;2023-04-15T04:10:17;10.60;76.30
19039;DHT22;9652;49.014;12.052;2023-04-15T04:12:44;10.50;76.50
19039;DHT22;9652;49.014;12.052;2023-04-15T04:15:11;10.50;76.50
19039;DHT22;9652;49.014;12.052;2023-04-15T04:17:38;10.50;76.50
19039;DHT22;9652;49.014;12.052;2023-04-15T04:20:07;10.50;76.60
19039;DHT22;9652;49.014;12.052;2023-04-15T04:22:37;10.50;76.80
19039;DHT22;9652;49.014;12.052;2023-04-15T04:25:05;10.40;76.90
19039;DHT22;9652;49.014;12.052;2023-04-15T04:27:33;10.40;76.90
19039;DHT22;9652;49.014;12.052;2023-04-15T04:30:00;10.40;76.90
19039;DHT22;9652;49.014;12.052;2023-04-15T04:32:27;10.40;77.00
19039;DHT22;9652;49.014;12.052;2023-04-15T04:34:54;10.30;77.20
19039;DHT22;9652;49.014;12.052;2023-04-15T04:37:22;10.30;77.20
19039;DHT22;9652;49.014;12.052;2023-04-15T04:39:50;10.30;77.50
19039;DHT22;9652;49.014;12.052;2023-04-15T04:42:17;10.20;77.90
19039;DHT22;9652;49.014;12.052;2023-04-15T04:44:44;10.20;78.30
19039;DHT22;9652;49.014;12.052;2023-04-15T04:47:11;10.20;78.60
19039;DHT22;9652;49.014;12.052;2023-04-15T04:49:38;10.20;78.90
19039;DHT22;9652;49.014;12.052;2023-04-15T04:52:05;10.10;79.30
19039;DHT22;9652;49.014;12.052;2023-04-15T04:54:34;10.10;79.50
19039;DHT22;9652;49.014;12.052;2023-04-15T04:57:01;10.10;79.80
19039;DHT22;9652;49.014;12.052;2023-04-15T04:59:28;10.10;80.00
19039;DHT22;9652;49.014;12.052;2023-04-15T05:01:56;10.10;80.10
19039;DHT22;9652;49.014;12.052;2023-04-15T05:04:23;10.20;80.30
19039;DHT22;9652;49.014;12.052;2023-04-15T05:06:50;10.10;80.50
19039;DHT22;9652;49.014;12.052;2023-04-15T05:09:17;10.20;80.70
19039;DHT22;9652;49.014;12.052;2023-04-15T05:11:46;10.00;80.60
19039;DHT22;9652;49.014;12.052;2023-04-15T05:14:13;10.10;80.80
19039;DHT22;9652;49.014;12.052;2023-04-15T05:16:40;10.10;81.00
19039;DHT22;9652;49.014;12.052;2023-04-15T05:19:07;10.10;81.10
19039;DHT22;9652;49.014;12.052;2023-04-15T05:21:34;10.10;81.30
19039;DHT22;9652;49.014;12.052;2023-04-15T05:24:01;10.10;81.50
19039;DHT22;9652;49.014;12.052;2023-04-15T05:26:29;10.10;81.50
19039;DHT22;9652;49.014;12.052;2023-04-15T05:28:57;10.10;82.40
19039;DHT22;9652;49.014;12.052;2023-04-15T05:31:25;10.20;81.60
19039;DHT22;9652;49.014;12.052;2023-04-15T05:33:52;10.10;81.60
19039;DHT22;9652;49.014;12.052;2023-04-15T05:36:19;10.20;81.60
19039;DHT22;9652;49.014;12.052;2023-04-15T05:38:46;10.10;81.40
19039;DHT22;9652;49.014;12.052;2023-04-15T05:41:13;10.10;81.50
19039;DHT22;9652;49.014;12.052;2023-04-15T05:43:41;10.10;81.60
19039;DHT22;9652;49.014;12.052;2023-04-15T05:46:10;10.10;81.50
19039;DHT22;9652;49.014;12.052;2023-04-15T05:48:37;10.10;81.30
19039;DHT22;9652;49.014;12.052;2023-04-15T05:51:04;10.10;81.30
19039;DHT22;9652;49.014;12.052;2023-04-15T05:53:31;10.00;81.20
19039;DHT22;9652;49.014;12.052;2023-04-15T05:55:58;10.00;81.40
19039;DHT22;9652;49.014;12.052;2023-04-15T05:58:26;9.90;81.50
19039;DHT22;9652;49.014;12.052;2023-04-15T06:00:53;9.90;81.60
19039;DHT22;9652;49.014;12.052;2023-04-15T06:03:21;9.90;81.80
19039;DHT22;9652;49.014;12.052;2023-04-15T06:05:48;9.90;81.70
19039;DHT22;9652;49.014;12.052;2023-04-15T06:08:15;9.80;81.90
19039;DHT22;9652;49.014;12.052;2023-04-15T06:10:43;9.90;82.30
19039;DHT22;9652;49.014;12.052;2023-04-15T06:13:10;9.80;82.60
19039;DHT22;9652;49.014;12.052;2023-04-15T06:15:38;9.90;82.70
19039;DHT22;9652;49.014;12.052;2023-04-15T06:18:05;10.00;82.80
19039;DHT22;9652;49.014;12.052;2023-04-15T06:20:34;9.90;82.70
19039;DHT22;9652;49.014;12.052;2023-04-15T06:23:01;9.90;82.90
19039;DHT22;9652;49.014;12.052;2023-04-15T06:25:28;10.00;82.80
19039;DHT22;9652;49.014;12.052;2023-04-15T06:27:55;10.00;83.00
19039;DHT22;9652;49.014;12.052;2023-04-15T06:30:22;10.10;83.20
19039;DHT22;9652;49.014;12.052;2023-04-15T06:32:49;10.00;83.00
19039;DHT22;9652;49.014;12.052;2023-04-15T06:35:17;10.10;83.00
19039;DHT22;9652;49.014;12.052;2023-04-15T06:37:45;10.10;82.80
19039;DHT22;9652;49.014;12.052;2023-04-15T06:40:13;10.00;82.80
19039;DHT22;9652;49.014;12.052;2023-04-15T06:42:40;10.10;83.00
19039;DHT22;9652;49.014;12.052;2023-04-15T06:45:08;10.10;83.10
19039;DHT22;9652;49.014;12.052;2023-04-15T06:47:36;10.10;83.00
19039;DHT22;9652;49.014;12.052;2023-04-15T06:50:03;10.10;83.20
19039;DHT22;9652;49.014;12.052;2023-04-15T06:52:31;10.10;83.00
19039;DHT22;9652;49.014;12.052;2023-04-15T06:55:00;10.10;82.90
19039;DHT22;9652;49.014;12.052;2023-04-15T06:57:27;10.00;82.70
19039;DHT22;9652;49.014;12.052;2023-04-15T06:59:55;10.10;82.80
19039;DHT22;9652;49.014;12.052;2023-04-15T07:02:22;10.10;82.90
19039;DHT22;9652;49.014;12.052;2023-04-15T07:04:49;10.10;82.80
19039;DHT22;9652;49.014;12.052;2023-04-15T07:07:16;10.00;82.80
19039;DHT22;9652;49.014;12.052;2023-04-15T07:09:43;9.90;82.70
19039;DHT22;9652;49.014;12.052;2023-04-15T07:12:12;10.00;82.80
19039;DHT22;9652;49.014;12.052;2023-04-15T07:14:39;10.00;82.80
19039;DHT22;9652;49.014;12.052;2023-04-15T07:17:06;10.00;83.20
19039;DHT22;9652;49.014;12.052;2023-04-15T07:19:34;10.00;83.30
19039;DHT22;9652;49.014;12.052;2023-04-15T07:22:01;10.10;83.50
19039;DHT22;9652;49.014;12.052;2023-04-15T07:24:28;10.20;83.70
19039;DHT22;9652;49.014;12.052;2023-04-15T07:26:55;10.10;84.00
19039;DHT22;9652;49.014;12.052;2023-04-15T07:29:25;10.10;84.10
19039;DHT22;9652;49.014;12.052;2023-04-15T07:31:52;10.10;84.20
19039;DHT22;9652;49.014;12.052;2023-04-15T07:34:21;10.30;84.40
19039;DHT22;9652;49.014;12.052;2023-04-15T07:36:49;10.30;84.50
19039;DHT22;9652;49.014;12.052;2023-04-15T07:39:16;10.40;84.70
19039;DHT22;9652;49.014;12.052;2023-04-15T07:41:43;10.40;84.70
19039;DHT22;9652;49.014;12.052;2023-04-15T07:44:11;10.40;84.70
19039;DHT22;9652;49.014;12.052;2023-04-15T07:46:39;10.50;85.30
19039;DHT22;9652;49.014;12.052;2023-04-15T07:49:06;10.60;84.40
19039;DHT22;9652;49.014;12.052;2023-04-15T07:51:33;10.60;84.40
19039;DHT22;9652;49.014;12.052;2023-04-15T07:54:01;10.60;84.10
19039;DHT22;9652;49.014;12.052;2023-04-15T07:56:29;10.60;84.10
19039;DHT22;9652;49.014;12.052;2023-04-15T07:58:56;10.70;83.90
19039;DHT22;9652;49.014;12.052;2023-04-15T08:01:23;10.70;83.90
19039;DHT22;9652;49.014;12.052;2023-04-15T08:03:51;10.60;83.40
19039;DHT22;9652;49.014;12.052;2023-04-15T08:06:19;10.60;83.50
19039;DHT22;9652;49.014;12.052;2023-04-15T08:08:46;10.60;83.50
19039;DHT22;9652;49.014;12.052;2023-04-15T08:11:13;10.60;83.80
19039;DHT22;9652;49.014;12.052;2023-04-15T08:13:40;10.60;83.90
19039;DHT22;9652;49.014;12.052;2023-04-15T08:16:16;10.60;84.00
19039;DHT22;9652;49.014;12.052;2023-04-15T08:18:45;10.60;84.20
19039;DHT22;9652;49.014;12.052;2023-04-15T08:21:13;10.70;84.40
19039;DHT22;9652;49.014;12.052;2023-04-15T08:23:42;10.70;84.50
19039;DHT22;9652;49.014;12.052;2023-04-15T08:26:09;10.70;84.40
19039;DHT22;9652;49.014;12.052;2023-04-15T08:28:37;10.70;84.50
19039;DHT22;9652;49.014;12.052;2023-04-15T08:31:05;10.70;84.60
19039;DHT22;9652;49.014;12.052;2023-04-15T08:33:33;10.80;84.50
19039;DHT22;9652;49.014;12.052;2023-04-15T08:36:00;10.80;84.60
19039;DHT22;9652;49.014;12.052;2023-04-15T08:38:29;10.80;84.80
19039;DHT22;9652;49.014;12.052;2023-04-15T08:40:57;10.80;84.50
19039;DHT22;9652;49.014;12.052;2023-04-15T08:43:28;10.80;84.40
19039;DHT22;9652;49.014;12.052;2023-04-15T08:46:00;10.80;84.40
19039;DHT22;9652;49.014;12.052;2023-04-15T08:48:32;10.80;84.40
19039;DHT22;9652;49.014;12.052;2023-04-15T08:51:00;10.80;84.40
19039;DHT22;9652;49.014;12.052;2023-04-15T08:53:30;10.80;84.40
19039;DHT22;9652;49.014;12.052;2023-04-15T08:55:59;10.80;84.50
19039;DHT22;9652;49.014;12.052;2023-04-15T08:58:34;10.90;84.40
19039;DHT22;9652;49.014;12.052;2023-04-15T09:01:01;10.90;84.40
19039;DHT22;9652;49.014;12.052;2023-04-15T09:03:29;10.90;84.30
19039;DHT22;9652;49.014;12.052;2023-04-15T09:05:56;10.90;84.40
19039;DHT22;9652;49.014;12.052;2023-04-15T09:08:23;10.90;84.80
19039;DHT22;9652;49.014;12.052;2023-04-15T09:10:53;10.90;85.10
19039;DHT22;9652;49.014;12.052;2023-04-15T09:13:20;10.90;85.00
19039;DHT22;9652;49.014;12.052;2023-04-15T09:15:47;11.00;85.10
19039;DHT22;9652;49.014;12.052;2023-04-15T09:18:26;11.00;85.30
19039;DHT22;9652;49.014;12.052;2023-04-15T09:20:55;11.00;85.60
19039;DHT22;9652;49.014;12.052;2023-04-15T09:23:22;11.10;85.70
19039;DHT22;9652;49.014;12.052;2023-04-15T09:25:49;11.10;86.00
19039;DHT22;9652;49.014;12.052;2023-04-15T09:28:23;11.20;86.10
19039;DHT22;9652;49.014;12.052;2023-04-15T09:30:54;11.20;85.60
19039;DHT22;9652;49.014;12.052;2023-04-15T09:33:22;11.30;85.40
19039;DHT22;9652;49.014;12.052;2023-04-15T09:35:59;11.30;85.40
19039;DHT22;9652;49.014;12.052;2023-04-15T09:38:28;11.30;85.20
19039;DHT22;9652;49.014;12.052;2023-04-15T09:40:57;11.30;85.00
19039;DHT22;9652;49.014;12.052;2023-04-15T09:43:36;11.40;85.00
19039;DHT22;9652;49.014;12.052;2023-04-15T09:46:05;11.30;85.20
19039;DHT22;9652;49.014;12.052;2023-04-15T09:48:32;11.40;84.70
19039;DHT22;9652;49.014;12.052;2023-04-15T09:51:00;11.40;84.50
19039;DHT22;9652;49.014;12.052;2023-04-15T09:53:27;11.40;84.70
19039;DHT22;9652;49.014;12.052;2023-04-15T09:55:58;11.40;84.90
19039;DHT22;9652;49.014;12.052;2023-04-15T09:58:30;11.40;85.60
19039;DHT22;9652;49.014;12.052;2023-04-15T10:00:59;11.40;84.80
19039;DHT22;9652;49.014;12.052;2023-04-15T10:03:30;11.40;84.60
19039;DHT22;9652;49.014;12.052;2023-04-15T10:06:00;11.40;84.70
19039;DHT22;9652;49.014;12.052;2023-04-15T10:08:29;11.40;84.80
19039;DHT22;9652;49.014;12.052;2023-04-15T10:10:59;11.40;85.00
19039;DHT22;9652;49.014;12.052;2023-04-15T10:13:29;11.50;85.20
19039;DHT22;9652;49.014;12.052;2023-04-15T10:16:04;11.60;85.40
19039;DHT22;9652;49.014;12.052;2023-04-15T10:18:34;11.50;85.30
19039;DHT22;9652;49.014;12.052;2023-04-15T10:21:08;11.50;85.10
19039;DHT22;9652;49.014;12.052;2023-04-15T10:23:35;11.60;85.00
19039;DHT22;9652;49.014;12.052;2023-04-15T10:26:05;11.60;84.80
19039;DHT22;9652;49.014;12.052;2023-04-15T10:28:33;11.60;84.60
19039;DHT22;9652;49.014;12.052;2023-04-15T10:31:01;11.60;84.60
19039;DHT22;9652;49.014;12.052;2023-04-15T10:33:30;11.60;84.80
19039;DHT22;9652;49.014;12.052;2023-04-15T10:35:59;11.60;84.80
19039;DHT22;9652;49.014;12.052;2023-04-15T10:38:34;11.60;85.00
19039;DHT22;9652;49.014;12.052;2023-04-15T10:41:16;11.60;85.20
19039;DHT22;9652;49.014;12.052;2023-04-15T10:43:48;11.70;85.80
19039;DHT22;9652;49.014;12.052;2023-04-15T10:46:23;11.70;86.10
19039;DHT22;9652;49.014;12.052;2023-04-15T10:49:06;11.80;86.10
19039;DHT22;9652;49.014;12.052;2023-04-15T10:51:37;11.80;86.10
19039;DHT22;9652;49.014;12.052;2023-04-15T10:54:12;11.90;86.30
19039;DHT22;9652;49.014;12.052;2023-04-15T10:56:43;12.00;86.90
19039;DHT22;9652;49.014;12.052;2023-04-15T10:59:11;12.10;87.80
19039;DHT22;9652;49.014;12.052;2023-04-15T11:01:52;12.20;88.20
19039;DHT22;9652;49.014;12.052;2023-04-15T11:04:52;12.50;88.70
19039;DHT22;9652;49.014;12.052;2023-04-15T11:07:35;12.70;88.00
19039;DHT22;9652;49.014;12.052;2023-04-15T11:13:25;12.90;87.40
19039;DHT22;9652;49.014;12.052;2023-04-15T11:16:02;13.10;87.60
19039;DHT22;9652;49.014;12.052;2023-04-15T11:18:31;13.00;88.10
19039;DHT22;9652;49.014;12.052;2023-04-15T11:21:02;13.40;88.20
19039;DHT22;9652;49.014;12.052;2023-04-15T11:23:33;13.50;87.50
19039;DHT22;9652;49.014;12.052;2023-04-15T11:26:03;13.60;86.80
19039;DHT22;9652;49.014;12.052;2023-04-15T11:28:35;13.70;85.40
19039;DHT22;9652;49.014;12.052;2023-04-15T11:31:08;13.70;84.90
19039;DHT22;9652;49.014;12.052;2023-04-15T11:33:38;13.80;85.30
19039;DHT22;9652;49.014;12.052;2023-04-15T11:36:12;13.80;85.50
19039;DHT22;9652;49.014;12.052;2023-04-15T11:38:42;13.90;85.10
19039;DHT22;9652;49.014;12.052;2023-04-15T11:41:10;13.90;85.10
19039;DHT22;9652;49.014;12.052;2023-04-15T11:43:39;14.00;85.30
19039;DHT22;9652;49.014;12.052;2023-04-15T11:46:06;14.10;85.00
19039;DHT22;9652;49.014;12.052;2023-04-15T11:48:35;14.10;84.70
19039;DHT22;9652;49.014;12.052;2023-04-15T11:51:04;14.10;84.30
19039;DHT22;9652;49.014;12.052;2023-04-15T11:53:36;14.20;84.30
19039;DHT22;9652;49.014;12.052;2023-04-15T11:56:07;14.40;84.20
19039;DHT22;9652;49.014;12.052;2023-04-15T11:58:36;14.40;83.80
19039;DHT22;9652;49.014;12.052;2023-04-15T12:01:05;14.40;83.70
19039;DHT22;9652;49.014;12.052;2023-04-15T12:03:37;14.50;83.20
19039;DHT22;9652;49.014;12.052;2023-04-15T12:06:07;14.60;81.30
19039;DHT22;9652;49.014;12.052;2023-04-15T12:08:58;14.60;81.10
19039;DHT22;9652;49.014;12.052;2023-04-15T12:11:32;14.60;78.90
19039;DHT22;9652;49.014;12.052;2023-04-15T12:14:06;14.50;80.00
19039;DHT22;9652;49.014;12.052;2023-04-15T12:16:40;14.50;79.00
19039;DHT22;9652;49.014;12.052;2023-04-15T12:19:09;14.40;79.40
19039;DHT22;9652;49.014;12.052;2023-04-15T12:21:40;14.40;79.40
19039;DHT22;9652;49.014;12.052;2023-04-15T12:24:10;14.40;78.50
19039;DHT22;9652;49.014;12.052;2023-04-15T12:26:43;14.30;78.70
19039;DHT22;9652;49.014;12.052;2023-04-15T12:29:13;14.30;77.80
19039;DHT22;9652;49.014;12.052;2023-04-15T12:31:53;14.20;78.20
19039;DHT22;9652;49.014;12.052;2023-04-15T12:34:29;14.10;77.00
19039;DHT22;9652;49.014;12.052;2023-04-15T12:36:58;14.10;77.10
19039;DHT22;9652;49.014;12.052;2023-04-15T12:39:29;14.00;77.60
19039;DHT22;9652;49.014;12.052;2023-04-15T12:41:58;14.10;77.70
19039;DHT22;9652;49.014;12.052;2023-04-15T12:44:26;13.90;77.20
19039;DHT22;9652;49.014;12.052;2023-04-15T12:46:55;13.80;77.00
19039;DHT22;9652;49.014;12.052;2023-04-15T12:49:23;13.70;76.60
19039;DHT22;9652;49.014;12.052;2023-04-15T12:51:51;13.70;76.80
19039;DHT22;9652;49.014;12.052;2023-04-15T12:54:20;13.60;76.80
19039;DHT22;9652;49.014;12.052;2023-04-15T12:56:49;13.60;77.10
19039;DHT22;9652;49.014;12.052;2023-04-15T12:59:16;13.50;76.60
19039;DHT22;9652;49.014;12.052;2023-04-15T13:01:44;13.50;76.50
19039;DHT22;9652;49.014;12.052;2023-04-15T13:04:14;13.40;76.40
19039;DHT22;9652;49.014;12.052;2023-04-15T13:06:41;13.40;76.40
19039;DHT22;9652;49.014;12.052;2023-04-15T13:09:09;13.30;76.60
19039;DHT22;9652;49.014;12.052;2023-04-15T13:11:36;13.30;76.40
19039;DHT22;9652;49.014;12.052;2023-04-15T13:14:05;13.30;76.30
19039;DHT22;9652;49.014;12.052;2023-04-15T13:16:33;13.30;76.00
19039;DHT22;9652;49.014;12.052;2023-04-15T13:19:02;13.20;75.90
19039;DHT22;9652;49.014;12.052;2023-04-15T13:21:31;13.20;75.50
19039;DHT22;9652;49.014;12.052;2023-04-15T13:24:00;13.20;75.20
19039;DHT22;9652;49.014;12.052;2023-04-15T13:26:27;13.10;75.40
19039;DHT22;9652;49.014;12.052;2023-04-15T13:28:54;13.10;75.70
19039;DHT22;9652;49.014;12.052;2023-04-15T13:31:21;13.10;75.70
19039;DHT22;9652;49.014;12.052;2023-04-15T13:33:48;13.10;75.90
19039;DHT22;9652;49.014;12.052;2023-04-15T13:36:15;13.10;76.20
19039;DHT22;9652;49.014;12.052;2023-04-15T13:38:44;13.10;76.20
19039;DHT22;9652;49.014;12.052;2023-04-15T13:41:11;13.10;75.90
19039;DHT22;9652;49.014;12.052;2023-04-15T13:43:38;13.10;76.10
19039;DHT22;9652;49.014;12.052;2023-04-15T13:46:05;13.10;76.00
19039;DHT22;9652;49.014;12.052;2023-04-15T13:48:32;13.10;76.10
19039;DHT22;9652;49.014;12.052;2023-04-15T13:50:59;13.10;76.00
19039;DHT22;9652;49.014;12.052;2023-04-15T13:53:26;13.10;75.90
19039;DHT22;9652;49.014;12.052;2023-04-15T13:55:56;13.10;75.50
19039;DHT22;9652;49.014;12.052;2023-04-15T13:58:23;13.00;75.70
19039;DHT22;9652;49.014;12.052;2023-04-15T14:00:50;13.00;75.70
19039;DHT22;9652;49.014;12.052;2023-04-15T14:03:17;12.90;75.50
19039;DHT22;9652;49.014;12.052;2023-04-15T14:05:44;12.80;75.60
19039;DHT22;9652;49.014;12.052;2023-04-15T14:08:11;12.80;76.80
19039;DHT22;9652;49.014;12.052;2023-04-15T14:10:38;12.70;76.00
19039;DHT22;9652;49.014;12.052;2023-04-15T14:13:10;12.70;76.10
19039;DHT22;9652;49.014;12.052;2023-04-15T14:15:37;12.60;76.70
19039;DHT22;9652;49.014;12.052;2023-04-15T14:18:04;12.60;77.30
19039;DHT22;9652;49.014;12.052;2023-04-15T14:20:31;12.60;77.30
19039;DHT22;9652;49.014;12.052;2023-04-15T14:22:58;12.60;77.70
19039;DHT22;9652;49.014;12.052;2023-04-15T14:25:25;12.60;77.70
19039;DHT22;9652;49.014;12.052;2023-04-15T14:27:52;12.60;77.80
19039;DHT22;9652;49.014;12.052;2023-04-15T14:30:21;12.60;78.00
19039;DHT22;9652;49.014;12.052;2023-04-15T14:32:48;12.60;78.00
19039;DHT22;9652;49.014;12.052;2023-04-15T14:35:15;12.60;77.80
19039;DHT22;9652;49.014;12.052;2023-04-15T14:37:42;12.60;78.10
19039;DHT22;9652;49.014;12.052;2023-04-15T14:40:10;12.60;78.20
19039;DHT22;9652;49.014;12.052;2023-04-15T14:42:37;12.60;78.30
19039;DHT22;9652;49.014;12.052;2023-04-15T14:45:05;12.60;78.20
19039;DHT22;9652;49.014;12.052;2023-04-15T14:47:34;12.70;77.90
19039;DHT22;9652;49.014;12.052;2023-04-15T14:50:01;12.70;78.00
19039;DHT22;9652;49.014;12.052;2023-04-15T14:52:29;12.70;78.50
19039;DHT22;9652;49.014;12.052;2023-04-15T14:55:04;12.80;78.40
19039;DHT22;9652;49.014;12.052;2023-04-15T14:57:31;12.80;78.20
19039;DHT22;9652;49.014;12.052;2023-04-15T14:59:58;12.80;77.90
19039;DHT22;9652;49.014;12.052;2023-04-15T15:02:25;12.90;77.80
19039;DHT22;9652;49.014;12.052;2023-04-15T15:04:54;12.90;77.60
19039;DHT22;9652;49.014;12.052;2023-04-15T15:07:21;13.00;77.50
19039;DHT22;9652;49.014;12.052;2023-04-15T15:09:49;13.00;77.30
19039;DHT22;9652;49.014;12.052;2023-04-15T15:12:16;13.10;77.30
19039;DHT22;9652;49.014;12.052;2023-04-15T15:14:43;13.20;77.60
19039;DHT22;9652;49.014;12.052;2023-04-15T15:17:10;13.20;77.50
19039;DHT22;9652;49.014;12.052;2023-04-15T15:19:37;13.20;77.40
19039;DHT22;9652;49.014;12.052;2023-04-15T15:22:06;13.30;77.20
19039;DHT22;9652;49.014;12.052;2023-04-15T15:24:33;13.30;76.80
19039;DHT22;9652;49.014;12.052;2023-04-15T15:27:00;13.30;76.60
19039;DHT22;9652;49.014;12.052;2023-04-15T15:29:28;13.40;76.40
19039;DHT22;9652;49.014;12.052;2023-04-15T15:31:55;13.50;76.60
19039;DHT22;9652;49.014;12.052;2023-04-15T15:34:22;13.40;76.40
19039;DHT22;9652;49.014;12.052;2023-04-15T15:36:49;13.40;76.00
19039;DHT22;9652;49.014;12.052;2023-04-15T15:39:17;13.40;76.00
19039;DHT22;9652;49.014;12.052;2023-04-15T15:41:44;13.40;76.10
19039;DHT22;9652;49.014;12.052;2023-04-15T15:44:12;13.40;76.10